Time;durP1;ratioP1;P1;durP2;ratioP2;P2;SDS_P1;SDS_P2;PMS_P1;PMS_P2;Temp;Humidity;BMP_temperature;BMP_pressure;BME280_temperature;BME280_humidity;BME280_pressure;Samples;Min_cycle;Max_cycle;Signal;HPM_P1;HPM_P2
2021/12/14 00:00:32;;;;;;;;;27.00;26.00;;;;;7.55;82.36;102133.06;5060205;28;45359;-76
2021/12/14 00:02:58;;;;;;;;;31.75;28.50;;;;;7.57;81.14;102126.16;5057848;28;46286;-73
2021/12/14 00:05:27;;;;;;;;;26.00;23.00;;;;;7.54;81.42;102119.84;5059097;28;45499;-75
2021/12/14 00:07:57;;;;;;;;;33.25;31.00;;;;;7.66;80.86;102128.25;5059518;28;45444;-75
2021/12/14 00:13:43;;;;;;;;;23.00;18.25;;;;;7.67;81.09;102120.44;5035728;28;46345;-76
2021/12/14 00:16:11;;;;;;;;;26.50;26.50;;;;;7.66;81.01;102112.53;5059631;28;45572;-76
2021/12/14 00:18:37;;;;;;;;;23.75;21.00;;;;;7.64;80.19;102111.56;5060211;28;45278;-76
2021/12/14 00:21:20;;;;;;;;;34.00;27.25;;;;;7.67;80.84;102103.81;5058794;28;45857;-76
2021/12/14 00:24:07;;;;;;;;;23.25;21.50;;;;;7.69;80.62;102113.53;5020989;28;46951;-75
2021/12/14 00:26:45;;;;;;;;;31.75;31.00;;;;;7.71;80.98;102130.22;5039548;28;45397;-76
2021/12/14 00:29:18;;;;;;;;;26.00;17.75;;;;;7.74;80.49;102136.44;5041404;28;45437;-73
2021/12/14 00:31:52;;;;;;;;;23.50;22.25;;;;;7.78;80.81;102127.84;5042439;28;45470;-74
2021/12/14 00:34:24;;;;;;;;;31.25;24.75;;;;;7.80;80.57;102127.06;5058248;28;46186;-76
2021/12/14 00:36:51;;;;;;;;;29.00;24.00;;;;;7.84;80.27;102108.03;5036534;28;45561;-77
2021/12/14 00:39:18;;;;;;;;;28.25;23.75;;;;;7.70;79.81;102078.59;5056434;28;45682;-73
2021/12/14 00:41:44;;;;;;;;;20.75;19.75;;;;;7.86;80.67;102103.72;5037075;28;45506;-73
2021/12/14 00:44:12;;;;;;;;;28.50;22.75;;;;;7.81;80.23;102105.25;5039414;28;46534;-72
2021/12/14 00:46:38;;;;;;;;;19.00;17.50;;;;;7.86;80.65;102113.31;5039178;28;45513;-76
2021/12/14 00:49:06;;;;;;;;;23.25;20.75;;;;;7.89;79.96;102106.47;5039826;28;45212;-74
2021/12/14 00:51:33;;;;;;;;;24.00;19.25;;;;;7.70;80.29;102061.97;5039000;28;45334;-75
2021/12/14 00:54:02;;;;;;;;;26.25;19.50;;;;;7.56;80.15;102040.44;5043257;28;46551;-73
2021/12/14 00:56:28;;;;;;;;;25.00;20.00;;;;;7.64;79.62;102070.50;5058134;28;45298;-76
2021/12/14 00:58:53;;;;;;;;;26.00;22.75;;;;;7.90;79.91;102121.38;5059258;28;45284;-77
2021/12/14 01:01:30;;;;;;;;;20.25;18.00;;;;;7.85;80.27;102103.66;5058936;28;45203;-77
2021/12/14 01:04:00;;;;;;;;;22.50;19.50;;;;;7.71;79.93;102087.34;5039860;28;47115;-75
2021/12/14 01:06:29;;;;;;;;;15.50;15.50;;;;;7.84;79.57;102118.53;5058695;28;45464;-77
2021/12/14 01:08:56;;;;;;;;;16.50;14.00;;;;;7.85;79.71;102120.31;5058342;28;45328;-77
2021/12/14 01:11:34;;;;;;;;;18.75;17.75;;;;;7.84;79.81;102112.38;5058137;28;47004;-77
2021/12/14 01:14:33;;;;;;;;;20.75;20.50;;;;;7.90;79.81;102116.13;5059004;28;46148;-77
2021/12/14 01:17:11;;;;;;;;;20.75;17.50;;;;;7.95;80.18;102125.09;4976408;28;45496;-77
2021/12/14 01:19:41;;;;;;;;;25.00;20.50;;;;;7.86;79.31;102105.47;4976539;28;45418;-77
2021/12/14 01:22:41;;;;;;;;;12.25;10.75;;;;;7.90;79.55;102115.22;4976508;28;45472;-74
2021/12/14 01:25:20;;;;;;;;;18.50;18.50;;;;;7.99;79.76;102144.47;4976310;28;45517;-76
2021/12/14 01:27:49;;;;;;;;;21.75;20.50;;;;;8.02;79.17;102143.72;4976379;28;45686;-76
2021/12/14 01:30:29;;;;;;;;;20.75;15.50;;;;;7.87;79.63;102115.13;4977627;28;45537;-77
2021/12/14 01:33:00;;;;;;;;;17.00;14.00;;;;;7.94;79.35;102133.78;4976775;28;45521;-76
2021/12/14 01:35:32;;;;;;;;;17.75;14.00;;;;;7.96;79.08;102146.97;4976246;28;46419;-76
2021/12/14 01:38:04;;;;;;;;;28.25;21.50;;;;;7.98;79.23;102166.28;4976263;28;45346;-76
2021/12/14 01:40:53;;;;;;;;;20.75;18.50;;;;;7.84;78.77;102159.59;4976093;28;45388;-76
2021/12/14 01:43:38;;;;;;;;;16.00;16.00;;;;;7.84;78.68;102171.00;4976939;28;45487;-77
2021/12/14 01:46:12;;;;;;;;;15.00;14.25;;;;;7.89;78.70;102179.03;4975714;28;46430;-77
2021/12/14 01:48:39;;;;;;;;;20.50;17.25;;;;;7.89;79.21;102176.41;4976881;28;45230;-78
2021/12/14 01:51:08;;;;;;;;;20.00;17.75;;;;;7.85;79.38;102153.53;4976277;28;45353;-76
2021/12/14 01:53:37;;;;;;;;;16.00;13.75;;;;;7.88;79.05;102167.66;4996932;28;45487;-78
2021/12/14 01:56:06;;;;;;;;;19.25;14.25;;;;;7.88;79.16;102172.88;5037690;28;46164;-74
2021/12/14 01:58:38;;;;;;;;;21.50;17.75;;;;;7.93;79.20;102184.50;5038243;28;45343;-77
2021/12/14 02:01:11;;;;;;;;;22.00;17.75;;;;;7.99;79.43;102199.56;5038419;28;45358;-76
2021/12/14 02:03:48;;;;;;;;;19.25;18.00;;;;;7.93;79.46;102197.59;5038502;28;45310;-77
2021/12/14 02:06:18;;;;;;;;;19.75;17.50;;;;;8.03;80.01;102211.09;5038269;28;47144;-75
2021/12/14 02:08:44;;;;;;;;;26.50;24.75;;;;;7.95;79.54;102195.03;5037759;28;45334;-76
2021/12/14 02:11:11;;;;;;;;;27.50;23.50;;;;;8.05;78.96;102217.31;5050464;28;45442;-73
2021/12/14 02:13:47;;;;;;;;;14.75;14.75;;;;;7.98;79.72;102217.03;5056843;28;45509;-74
2021/12/14 02:16:16;;;;;;;;;18.00;18.00;;;;;8.03;79.76;102232.09;5057981;28;45535;-74
2021/12/14 02:18:52;;;;;;;;;20.00;18.00;;;;;8.05;78.66;102240.94;5057924;28;45370;-74
2021/12/14 02:21:18;;;;;;;;;16.00;12.50;;;;;7.98;78.48;102238.03;5039634;28;45345;-73
2021/12/14 02:23:51;;;;;;;;;17.50;17.50;;;;;8.00;79.22;102231.16;5057479;28;45441;-72
2021/12/14 02:26:20;;;;;;;;;13.75;13.00;;;;;8.00;77.96;102220.66;5056968;28;45480;-74
2021/12/14 02:28:46;;;;;;;;;17.75;15.25;;;;;7.99;78.80;102212.69;5057480;28;45447;-74
2021/12/14 02:31:17;;;;;;;;;19.75;15.00;;;;;7.86;78.35;102192.03;5057980;28;45346;-75
2021/12/14 02:33:46;;;;;;;;;17.50;13.00;;;;;7.93;78.92;102196.72;5057811;28;45326;-74
2021/12/14 02:36:20;;;;;;;;;18.75;17.25;;;;;7.92;78.91;102185.31;5057555;28;46464;-74
2021/12/14 02:38:49;;;;;;;;;17.00;15.50;;;;;7.92;79.24;102174.84;5056842;28;45414;-75
2021/12/14 02:41:15;;;;;;;;;19.50;13.50;;;;;7.86;78.58;102157.94;5056730;28;45420;-75
2021/12/14 02:43:47;;;;;;;;;21.75;18.00;;;;;7.90;79.46;102181.72;5057474;28;45227;-75
2021/12/14 02:46:22;;;;;;;;;23.25;20.25;;;;;7.85;78.68;102174.50;5057502;28;46202;-75
2021/12/14 02:48:54;;;;;;;;;15.50;13.00;;;;;7.88;79.53;102182.50;5058002;28;45511;-75
2021/12/14 02:51:25;;;;;;;;;14.50;13.00;;;;;7.87;79.37;102175.47;5057463;28;45376;-75
2021/12/14 02:53:54;;;;;;;;;17.75;15.25;;;;;7.95;78.74;102189.78;5056650;28;45597;-75
2021/12/14 02:56:23;;;;;;;;;16.25;14.25;;;;;7.94;79.16;102186.28;5056292;28;46152;-75
2021/12/14 02:58:54;;;;;;;;;19.75;18.25;;;;;7.94;78.73;102188.91;5056811;28;45392;-75
2021/12/14 03:01:20;;;;;;;;;18.75;14.50;;;;;7.87;79.69;102170.22;5056816;28;45312;-74
2021/12/14 03:03:45;;;;;;;;;16.25;13.25;;;;;7.94;78.86;102175.78;5057297;28;45489;-75
2021/12/14 03:06:15;;;;;;;;;13.75;13.75;;;;;7.93;79.37;102166.13;5057797;28;46739;-75
2021/12/14 03:08:46;;;;;;;;;21.75;21.75;;;;;7.90;78.74;102165.97;5056737;28;45155;-75
2021/12/14 03:11:13;;;;;;;;;25.25;22.00;;;;;7.85;79.35;102159.66;5056290;28;45538;-74
2021/12/14 03:13:46;;;;;;;;;22.00;19.50;;;;;7.84;79.72;102146.47;5056262;28;45551;-75
2021/12/14 03:16:19;;;;;;;;;24.00;19.50;;;;;7.83;78.83;102149.94;5056689;28;45461;-75
2021/12/14 03:18:47;;;;;;;;;28.50;25.25;;;;;7.78;79.33;102151.47;5056799;28;45859;-74
2021/12/14 03:21:20;;;;;;;;;27.25;21.50;;;;;7.70;79.18;102141.53;5056265;28;45369;-74
2021/12/14 03:23:59;;;;;;;;;24.25;21.25;;;;;7.71;79.63;102150.31;5056671;28;45692;-74
2021/12/14 03:26:28;;;;;;;;;22.50;19.00;;;;;7.79;78.81;102162.03;5037928;28;48615;-73
2021/12/14 03:28:58;;;;;;;;;25.50;22.75;;;;;7.75;79.02;102154.88;5056568;28;45411;-73
2021/12/14 03:31:34;;;;;;;;;27.75;21.50;;;;;7.79;79.58;102159.41;5056387;28;45242;-75
2021/12/14 03:34:10;;;;;;;;;23.75;22.50;;;;;7.68;78.97;102130.09;5056870;28;45431;-73
2021/12/14 03:36:48;;;;;;;;;23.75;23.75;;;;;7.84;79.33;102154.34;5056733;28;46617;-74
2021/12/14 03:39:14;;;;;;;;;28.00;20.50;;;;;7.88;78.73;102149.28;5055496;28;45394;-74
2021/12/14 03:42:03;;;;;;;;;23.50;20.75;;;;;7.89;79.11;102140.56;5055234;28;45429;-75
2021/12/14 03:44:52;;;;;;;;;27.75;25.25;;;;;7.87;79.43;102128.22;5056816;28;45809;-75
2021/12/14 03:47:29;;;;;;;;;25.75;23.00;;;;;7.88;78.88;102128.28;5056827;28;45647;-77
2021/12/14 03:49:59;;;;;;;;;33.75;27.50;;;;;7.81;78.68;102133.22;5057022;28;45426;-74
2021/12/14 03:52:32;;;;;;;;;8.75;8.00;;;;;7.61;79.24;102098.31;5057102;28;45284;-74
2021/12/14 03:55:00;;;;;;;;;29.00;27.25;;;;;7.87;78.92;102142.25;5056949;28;45416;-75
2021/12/14 03:57:26;;;;;;;;;30.00;25.75;;;;;7.79;79.49;102117.41;5056763;28;47607;-75
2021/12/14 03:59:53;;;;;;;;;23.50;22.25;;;;;7.85;79.52;102135.16;5056437;28;45440;-75
2021/12/14 04:02:19;;;;;;;;;29.50;25.00;;;;;7.85;79.42;102128.19;5057049;28;45519;-75
2021/12/14 04:04:57;;;;;;;;;28.25;24.25;;;;;7.83;79.03;102116.72;5056865;28;45278;-75
2021/12/14 04:07:23;;;;;;;;;28.50;27.25;;;;;7.87;79.62;102116.00;5056844;28;46424;-75
2021/12/14 04:09:49;;;;;;;;;28.75;26.25;;;;;7.86;79.51;102123.81;5056892;28;45360;-77
2021/12/14 04:12:18;;;;;;;;;26.75;25.25;;;;;7.78;79.61;102106.88;5038534;28;45250;-75
2021/12/14 04:14:55;;;;;;;;;31.25;28.00;;;;;7.86;78.67;102116.84;5056550;28;45560;-76
2021/12/14 04:17:24;;;;;;;;;29.25;24.00;;;;;7.86;79.28;102116.84;5056267;28;45292;-74
2021/12/14 04:19:50;;;;;;;;;32.25;30.00;;;;;7.89;79.01;102126.56;5056080;28;45374;-75
2021/12/14 04:22:24;;;;;;;;;30.25;26.00;;;;;7.93;78.17;102132.00;5056644;28;45365;-76
2021/12/14 04:24:56;;;;;;;;;27.00;24.00;;;;;7.98;78.48;102140.06;5056826;28;45266;-75
2021/12/14 04:27:25;;;;;;;;;33.50;25.50;;;;;7.83;78.41;102121.97;5056196;28;46385;-75
2021/12/14 04:29:52;;;;;;;;;25.50;22.25;;;;;7.98;77.90;102143.56;5056436;28;45313;-75
2021/12/14 04:32:18;;;;;;;;;28.50;26.00;;;;;7.95;77.84;102134.69;5056397;28;45285;-75
2021/12/14 04:34:44;;;;;;;;;32.00;27.50;;;;;8.02;78.45;102146.34;5056427;28;45495;-75
2021/12/14 04:37:14;;;;;;;;;28.50;23.00;;;;;7.99;77.89;102147.97;5057225;28;45363;-74
2021/12/14 04:39:48;;;;;;;;;26.50;26.50;;;;;7.98;78.01;102150.53;5058972;28;45379;-74
2021/12/14 04:53:20;;;;;;;;;23.50;22.25;;;;;8.11;77.72;102144.97;5059692;28;45358;-75
2021/12/14 04:55:46;;;;;;;;;31.50;28.75;;;;;8.04;77.69;102131.53;5059744;28;45306;-77
2021/12/14 04:58:12;;;;;;;;;24.00;20.75;;;;;8.11;78.34;102131.84;5059438;28;46295;-76
2021/12/14 05:00:48;;;;;;;;;31.25;25.00;;;;;8.10;78.21;102124.81;5058838;28;45403;-76
2021/12/14 05:03:20;;;;;;;;;35.00;28.50;;;;;8.20;78.15;102157.56;5059451;28;45216;-76
2021/12/14 05:05:49;;;;;;;;;30.25;25.75;;;;;8.14;78.35;102142.47;5059462;28;45579;-74
2021/12/14 05:11:09;;;;;;;;;30.50;25.75;;;;;8.15;78.27;102145.97;5059337;28;45268;-76
2021/12/14 05:13:42;;;;;;;;;29.00;26.75;;;;;8.11;78.09;102125.72;5059126;28;45337;-76
2021/12/14 05:16:08;;;;;;;;;26.50;26.25;;;;;8.20;77.62;102144.44;5059405;28;45311;-75
2021/12/14 05:18:34;;;;;;;;;32.50;28.50;;;;;8.15;77.74;102140.72;5058408;28;45361;-74
2021/12/14 05:21:00;;;;;;;;;31.75;28.50;;;;;8.17;77.65;102141.69;5058809;28;45247;-76
2021/12/14 05:23:32;;;;;;;;;31.50;25.00;;;;;8.12;77.71;102131.00;5059324;28;45436;-77
2021/12/14 05:26:02;;;;;;;;;28.50;27.75;;;;;8.21;77.75;102155.00;5059342;28;45622;-76
2021/12/14 05:28:28;;;;;;;;;34.75;28.00;;;;;8.22;78.52;102163.78;5059099;28;46448;-76
2021/12/14 05:30:58;;;;;;;;;31.50;26.75;;;;;8.15;78.33;102135.47;5058658;28;45424;-77
2021/12/14 05:33:28;;;;;;;;;31.75;29.25;;;;;8.21;78.40;102149.75;5059010;28;45211;-75
2021/12/14 05:35:57;;;;;;;;;31.50;28.50;;;;;8.10;78.24;102137.94;5059332;28;45417;-77
2021/12/14 05:38:38;;;;;;;;;29.75;27.75;;;;;8.19;77.98;102158.38;5058660;28;46404;-76
2021/12/14 05:43:48;;;;;;;;;32.25;30.25;;;;;8.00;77.81;102133.13;5058760;28;45416;-77
2021/12/14 05:46:19;;;;;;;;;34.50;29.25;;;;;8.13;78.35;102152.91;5059194;28;45403;-76
2021/12/14 05:48:45;;;;;;;;;37.00;32.25;;;;;8.08;78.15;102141.31;5058822;28;45454;-76
2021/12/14 05:51:10;;;;;;;;;31.75;28.75;;;;;8.08;78.56;102144.84;5058639;28;45333;-74
2021/12/14 05:53:40;;;;;;;;;35.00;31.00;;;;;8.08;78.39;102165.81;5058880;28;45342;-77
2021/12/14 05:56:25;;;;;;;;;26.75;23.00;;;;;8.00;79.00;102152.41;5059171;28;45306;-75
2021/12/14 05:58:52;;;;;;;;;27.50;19.25;;;;;8.03;79.03;102162.13;5058297;28;46275;-76
2021/12/14 06:01:22;;;;;;;;;27.00;25.50;;;;;8.06;78.41;102170.13;5057951;28;45452;-75
2021/12/14 06:03:53;;;;;;;;;31.00;23.50;;;;;8.07;78.71;102173.66;5058345;28;45674;-76
2021/12/14 06:06:31;;;;;;;;;23.00;23.00;;;;;8.04;78.70;102170.91;5059036;28;45303;-76
2021/12/14 06:09:10;;;;;;;;;24.75;21.00;;;;;7.99;78.90;102163.72;5058459;28;45260;-76
2021/12/14 06:11:36;;;;;;;;;24.25;23.50;;;;;8.03;78.25;102177.88;5039848;28;45413;-75
2021/12/14 06:14:03;;;;;;;;;28.25;21.75;;;;;7.93;78.65;102170.47;5057924;28;45338;-75
2021/12/14 06:16:31;;;;;;;;;21.25;21.25;;;;;8.03;78.55;102204.13;5058313;28;45383;-74
2021/12/14 06:19:15;;;;;;;;;19.50;18.00;;;;;8.03;78.33;102204.13;5058100;28;45223;-74
2021/12/14 06:21:40;;;;;;;;;24.50;21.25;;;;;7.98;78.69;102201.28;5056744;28;45307;-73
2021/12/14 06:24:08;;;;;;;;;24.25;17.75;;;;;7.95;78.50;102201.19;5065959;28;45263;-76
2021/12/14 06:26:40;;;;;;;;;19.75;19.25;;;;;7.89;77.82;102192.16;5058166;28;45360;-74
2021/12/14 06:29:13;;;;;;;;;28.75;24.50;;;;;8.00;78.64;102212.78;5057037;28;46688;-76
2021/12/14 06:31:41;;;;;;;;;31.25;24.00;;;;;7.93;78.80;102202.84;5039825;28;45509;-76
2021/12/14 06:34:22;;;;;;;;;15.75;15.75;;;;;8.02;77.97;102211.94;5057488;28;45310;-75
2021/12/14 06:37:14;;;;;;;;;38.00;32.25;;;;;7.95;77.69;102209.06;5057832;28;45291;-76
2021/12/14 06:40:06;;;;;;;;;27.75;24.25;;;;;7.86;77.67;102205.16;5057660;28;45633;-76
2021/12/14 06:42:33;;;;;;;;;35.75;30.75;;;;;7.78;77.66;102206.56;5038159;28;45251;-77
2021/12/14 06:45:06;;;;;;;;;27.00;23.00;;;;;7.78;78.08;102231.06;5051588;28;45878;-73
2021/12/14 06:47:32;;;;;;;;;26.25;25.50;;;;;7.67;78.87;102206.09;5058069;28;45539;-75
2021/12/14 06:50:08;;;;;;;;;16.75;16.00;;;;;7.84;78.93;102228.72;5056927;28;46614;-72
2021/12/14 06:52:34;;;;;;;;;26.50;26.25;;;;;7.86;78.56;102229.66;5056689;28;45422;-73
2021/12/14 06:55:00;;;;;;;;;26.75;22.75;;;;;7.85;79.15;102221.72;5057841;28;45415;-73
2021/12/14 06:57:25;;;;;;;;;24.75;23.25;;;;;7.87;78.62;102222.69;5057532;28;45511;-73
2021/12/14 06:59:55;;;;;;;;;34.00;27.00;;;;;7.82;78.14;102222.50;5056835;28;46159;-74
2021/12/14 07:02:22;;;;;;;;;28.75;26.75;;;;;7.74;78.99;102210.78;5057411;28;45233;-74
2021/12/14 07:04:49;;;;;;;;;26.00;26.00;;;;;7.80;78.83;102233.75;5057043;28;45254;-73
2021/12/14 07:07:19;;;;;;;;;25.75;23.75;;;;;7.80;78.38;102231.13;5057744;28;45479;-73
2021/12/14 07:09:52;;;;;;;;;25.50;24.75;;;;;7.74;78.93;102220.38;5056501;28;45660;-73
2021/12/14 07:12:20;;;;;;;;;25.00;20.75;;;;;7.84;78.77;102233.94;5057460;28;45379;-74
2021/12/14 07:14:48;;;;;;;;;32.00;26.75;;;;;7.85;79.33;102230.50;5057069;28;45552;-74
2021/12/14 07:17:24;;;;;;;;;37.00;30.75;;;;;7.75;78.41;102211.69;5056959;28;45473;-76
2021/12/14 07:19:54;;;;;;;;;32.25;27.75;;;;;7.84;78.86;102219.94;5056755;28;46889;-75
2021/12/14 07:22:31;;;;;;;;;28.75;22.25;;;;;7.89;78.58;102228.88;5057165;28;45242;-76
2021/12/14 07:25:08;;;;;;;;;24.00;24.00;;;;;7.88;78.45;102232.34;5057427;28;45377;-76
2021/12/14 07:27:43;;;;;;;;;29.25;26.00;;;;;7.82;78.94;102224.22;5057060;28;45393;-75
2021/12/14 07:30:17;;;;;;;;;27.75;26.50;;;;;7.87;78.49;102235.81;5056970;28;45476;-76
2021/12/14 07:32:59;;;;;;;;;27.00;22.75;;;;;7.89;79.05;102235.03;5056994;28;45287;-76
2021/12/14 07:35:33;;;;;;;;;24.75;23.25;;;;;7.92;78.35;102242.16;5057172;28;45280;-76
2021/12/14 07:38:15;;;;;;;;;23.75;22.00;;;;;7.91;79.10;102235.09;5056896;28;45536;-76
2021/12/14 07:40:43;;;;;;;;;29.50;25.50;;;;;7.88;78.61;102230.63;5056341;28;46335;-76
2021/12/14 07:43:31;;;;;;;;;25.00;23.00;;;;;7.92;78.56;102231.66;5056946;28;45697;-76
2021/12/14 07:45:59;;;;;;;;;24.75;19.50;;;;;7.90;78.61;102234.19;5056670;28;45228;-75
2021/12/14 07:48:49;;;;;;;;;18.75;18.75;;;;;7.93;78.52;102236.97;5057024;28;45425;-75
2021/12/14 07:51:19;;;;;;;;;30.75;23.25;;;;;7.98;78.76;102239.75;5038026;28;46642;-76
2021/12/14 07:53:48;;;;;;;;;36.50;27.00;;;;;8.02;78.16;102240.81;5056772;28;45352;-76
2021/12/14 07:56:34;;;;;;;;;30.75;30.00;;;;;8.07;78.01;102250.66;5056752;28;45283;-75
2021/12/14 07:59:07;;;;;;;;;30.25;25.50;;;;;8.16;77.79;102268.50;5056760;28;45461;-76
2021/12/14 08:01:32;;;;;;;;;24.00;19.00;;;;;8.12;77.48;102250.84;5056010;28;46379;-76
2021/12/14 08:04:10;;;;;;;;;34.00;27.50;;;;;8.19;77.91;102261.69;5056455;28;45329;-75
2021/12/14 08:06:54;;;;;;;;;31.25;27.50;;;;;8.18;77.47;102265.09;5038399;28;45217;-75
2021/12/14 08:09:50;;;;;;;;;31.50;27.00;;;;;8.16;77.58;102268.50;5056822;28;45358;-76
2021/12/14 08:12:34;;;;;;;;;29.75;25.75;;;;;8.26;77.50;102282.06;5057369;28;46245;-75
2021/12/14 08:15:06;;;;;;;;;27.00;24.25;;;;;8.32;77.86;102293.69;5060065;28;45283;-76
2021/12/14 08:17:32;;;;;;;;;27.50;23.75;;;;;8.36;77.21;102304.41;5059896;28;45435;-76
2021/12/14 08:19:57;;;;;;;;;24.50;22.75;;;;;8.41;76.66;102301.97;5059966;28;45488;-76
2021/12/14 08:22:35;;;;;;;;;18.25;17.25;;;;;8.38;76.53;102291.34;5059831;28;45325;-75
2021/12/14 08:25:03;;;;;;;;;24.75;23.00;;;;;8.44;76.49;102302.97;5059791;28;45244;-76
2021/12/14 08:27:29;;;;;;;;;25.50;21.50;;;;;8.23;76.76;102263.59;5060166;28;45356;-76
2021/12/14 08:29:59;;;;;;;;;22.00;21.75;;;;;8.47;76.91;102299.63;5041537;28;45466;-76
2021/12/14 08:32:30;;;;;;;;;14.00;14.00;;;;;8.41;76.05;102295.00;5059743;28;45579;-76
2021/12/14 08:34:58;;;;;;;;;24.50;23.00;;;;;8.35;76.63;102284.22;5059449;28;45436;-75
2021/12/14 08:37:36;;;;;;;;;25.00;23.00;;;;;8.46;76.30;102297.78;5059277;28;45442;-74
2021/12/14 08:40:10;;;;;;;;;23.00;20.50;;;;;8.52;76.92;102298.94;5059364;28;45501;-75
2021/12/14 08:42:48;;;;;;;;;29.25;22.75;;;;;8.58;75.97;102293.06;5059553;28;45461;-75
2021/12/14 08:45:26;;;;;;;;;22.00;21.00;;;;;8.52;76.39;102288.44;5040669;28;45408;-75
2021/12/14 08:48:03;;;;;;;;;26.00;23.50;;;;;8.65;75.96;102308.19;5059884;28;45470;-75
2021/12/14 08:50:31;;;;;;;;;25.00;22.00;;;;;8.67;75.71;102309.19;5059569;28;45448;-75
2021/12/14 08:52:57;;;;;;;;;28.25;25.75;;;;;8.55;75.59;102282.41;5059269;28;46524;-75
2021/12/14 08:55:31;;;;;;;;;28.50;25.50;;;;;8.70;75.56;102305.78;5059021;28;45262;-76
2021/12/14 08:57:57;;;;;;;;;20.50;19.50;;;;;8.69;75.26;102304.00;5059178;28;45411;-75
2021/12/14 09:00:30;;;;;;;;;34.25;28.75;;;;;8.68;75.20;102292.59;5059278;28;45456;-76
2021/12/14 09:03:00;;;;;;;;;28.75;26.00;;;;;8.89;75.48;102316.19;5059031;28;47046;-75
2021/12/14 09:05:30;;;;;;;;;24.50;22.50;;;;;8.82;74.96;102301.00;5058990;28;45328;-75
2021/12/14 09:07:56;;;;;;;;;31.50;24.50;;;;;8.76;75.02;102280.66;5059105;28;45242;-76
2021/12/14 09:10:25;;;;;;;;;28.25;26.50;;;;;8.90;74.70;102307.47;5059008;28;45469;-76
2021/12/14 09:12:55;;;;;;;;;29.25;26.00;;;;;8.94;74.93;102308.50;5059052;28;45363;-76
2021/12/14 09:15:31;;;;;;;;;24.75;21.50;;;;;8.95;74.78;102310.28;5058802;28;45334;-76
2021/12/14 09:17:57;;;;;;;;;30.75;26.00;;;;;8.94;74.53;102291.00;5058956;28;45350;-76
2021/12/14 09:20:31;;;;;;;;;30.00;26.00;;;;;9.04;74.67;102308.00;5058887;28;45386;-76
2021/12/14 09:23:08;;;;;;;;;28.00;25.75;;;;;9.04;74.26;102306.28;5058523;28;46722;-76
2021/12/14 09:25:34;;;;;;;;;28.25;25.25;;;;;9.03;74.11;102314.13;5059089;28;45397;-76
2021/12/14 09:28:02;;;;;;;;;27.00;24.50;;;;;8.98;74.33;102305.13;5040582;28;45404;-76
2021/12/14 09:30:32;;;;;;;;;31.25;23.00;;;;;9.07;73.76;102313.38;5058827;28;45361;-76
2021/12/14 09:32:57;;;;;;;;;31.75;26.75;;;;;9.11;73.27;102315.28;5058578;28;46092;-76
2021/12/14 09:35:28;;;;;;;;;25.25;24.00;;;;;9.09;74.12;102312.59;5058559;28;45289;-77
2021/12/14 09:37:56;;;;;;;;;27.50;24.00;;;;;9.13;73.41;102317.16;5058531;28;45211;-76
2021/12/14 09:40:31;;;;;;;;;28.50;23.25;;;;;9.13;73.67;102311.00;5058324;28;45466;-76
2021/12/14 09:42:57;;;;;;;;;27.25;25.75;;;;;9.20;73.83;102314.72;5058086;28;45527;-76
2021/12/14 09:45:33;;;;;;;;;30.25;27.50;;;;;9.18;73.64;102313.78;5058030;28;45678;-75
2021/12/14 09:48:00;;;;;;;;;24.00;22.25;;;;;9.15;74.03;102309.31;5058575;28;45279;-75
2021/12/14 09:50:31;;;;;;;;;25.25;25.25;;;;;9.27;73.36;102332.53;5058118;28;45313;-75
2021/12/14 09:53:05;;;;;;;;;30.75;25.75;;;;;9.19;73.50;102318.22;5058071;28;46368;-75
2021/12/14 09:55:33;;;;;;;;;38.25;35.75;;;;;9.35;73.26;102337.25;5058139;28;45161;-76
2021/12/14 09:58:06;;;;;;;;;36.75;32.50;;;;;9.32;73.16;102326.63;5057986;28;45448;-76
2021/12/14 10:00:45;;;;;;;;;30.50;28.00;;;;;9.45;73.66;102338.50;5058237;28;45496;-75
2021/12/14 10:03:12;;;;;;;;;28.75;26.00;;;;;9.47;73.47;102328.03;5039774;28;48191;-76
2021/12/14 10:05:55;;;;;;;;;32.00;28.75;;;;;9.47;72.82;102323.66;5057829;28;45323;-76
2021/12/14 10:08:26;;;;;;;;;33.50;30.75;;;;;9.41;72.91;102315.56;5058126;28;45422;-76
2021/12/14 10:11:04;;;;;;;;;28.00;26.50;;;;;9.49;72.75;102332.50;5058168;28;45323;-76
2021/12/14 10:13:33;;;;;;;;;34.25;31.25;;;;;9.54;73.04;102330.94;5039507;28;46730;-75
2021/12/14 10:16:01;;;;;;;;;24.25;23.75;;;;;9.52;72.78;102323.84;5057500;28;45405;-76
2021/12/14 10:18:31;;;;;;;;;32.00;28.50;;;;;9.55;72.70;102323.94;5057943;28;45393;-76
2021/12/14 10:21:02;;;;;;;;;28.50;25.00;;;;;9.47;72.53;102313.16;5057510;28;45641;-76
2021/12/14 10:23:32;;;;;;;;;29.75;26.50;;;;;9.60;72.62;102328.56;5057914;28;45381;-76
2021/12/14 10:25:59;;;;;;;;;26.50;26.50;;;;;9.63;72.59;102335.66;5057636;28;45318;-76
2021/12/14 10:28:26;;;;;;;;;36.00;27.25;;;;;9.58;72.03;102329.31;5057527;28;45544;-76
2021/12/14 10:31:08;;;;;;;;;29.00;27.75;;;;;9.63;72.09;102333.03;5058279;28;45417;-76
2021/12/14 10:33:39;;;;;;;;;28.25;27.00;;;;;9.61;72.46;102338.25;5057370;28;47340;-75
2021/12/14 10:36:17;;;;;;;;;34.25;27.75;;;;;9.71;72.23;102347.38;5056441;28;45440;-75
2021/12/14 10:39:06;;;;;;;;;43.75;32.50;;;;;9.72;72.01;102341.25;5057798;28;45330;-76
2021/12/14 10:44:17;;;;;;;;;32.00;25.50;;;;;9.73;72.16;102344.78;5064714;28;45425;-75
2021/12/14 10:46:48;;;;;;;;;37.25;30.00;;;;;9.74;72.28;102338.69;5064842;28;45341;-76
2021/12/14 10:49:15;;;;;;;;;26.25;22.50;;;;;9.83;71.79;102333.75;5064878;28;45407;-75
2021/12/14 10:51:44;;;;;;;;;27.75;24.50;;;;;9.63;71.64;102301.47;5064404;28;45209;-75
2021/12/14 10:54:13;;;;;;;;;31.25;30.00;;;;;9.86;72.75;102344.38;5064447;28;47500;-76
2021/12/14 10:56:59;;;;;;;;;28.00;26.00;;;;;9.84;71.80;102325.00;5062940;28;45393;-75
2021/12/14 10:59:29;;;;;;;;;31.50;28.25;;;;;9.78;71.94;102312.53;5060822;28;45456;-76
2021/12/14 11:01:56;;;;;;;;;33.25;29.25;;;;;9.97;71.25;102343.06;5060129;28;45347;-76
2021/12/14 11:04:40;;;;;;;;;41.25;35.50;;;;;10.02;71.63;102337.94;5057034;28;46635;-75
2021/12/14 11:07:14;;;;;;;;;36.50;33.50;;;;;9.99;70.57;102325.56;5057618;28;45521;-75
2021/12/14 11:09:45;;;;;;;;;31.00;27.50;;;;;10.02;71.41;102317.75;5057233;28;45444;-75
2021/12/14 11:12:25;;;;;;;;;30.75;27.25;;;;;10.15;71.35;102337.53;5057787;28;45325;-76
2021/12/14 11:14:59;;;;;;;;;34.75;30.75;;;;;9.96;71.08;102315.84;5057202;28;45582;-75
2021/12/14 11:20:33;;;;;;;;;38.25;33.50;;;;;10.15;70.85;102334.91;5057405;28;45377;-76
2021/12/14 11:22:59;;;;;;;;;37.75;33.00;;;;;10.21;70.45;102329.81;5056487;28;45279;-76
2021/12/14 11:25:27;;;;;;;;;37.75;33.50;;;;;10.11;70.20;102301.38;5057347;28;45429;-76
2021/12/14 11:28:01;;;;;;;;;44.50;32.50;;;;;10.22;70.89;102316.75;5057710;28;45398;-76
2021/12/14 11:30:44;;;;;;;;;35.00;33.50;;;;;10.35;69.87;102325.06;5039440;28;45383;-75
2021/12/14 11:33:16;;;;;;;;;35.25;32.00;;;;;10.31;70.67;102310.88;5057802;28;45494;-75
2021/12/14 11:35:54;;;;;;;;;36.00;34.00;;;;;10.42;70.06;102330.63;5057324;28;45396;-75
2021/12/14 11:38:28;;;;;;;;;30.00;27.25;;;;;10.44;70.67;102328.91;5054758;28;45368;-76
2021/12/14 11:40:56;;;;;;;;;29.75;29.75;;;;;10.45;70.14;102320.16;5057480;28;45244;-76
2021/12/14 11:43:28;;;;;;;;;33.00;32.50;;;;;10.48;70.18;102316.72;5057405;28;45533;-76
2021/12/14 11:45:55;;;;;;;;;40.75;33.25;;;;;10.35;69.67;102299.63;5039668;28;47051;-75
2021/12/14 11:48:34;;;;;;;;;45.25;36.50;;;;;10.32;70.09;102293.34;5042304;28;45464;-75
2021/12/14 11:51:04;;;;;;;;;35.75;29.50;;;;;10.38;69.96;102288.28;5061079;28;45424;-75
2021/12/14 11:53:29;;;;;;;;;34.00;33.00;;;;;10.40;69.04;102290.13;5042578;28;45595;-74
2021/12/14 11:56:10;;;;;;;;;33.00;32.50;;;;;10.51;68.95;102309.81;5060453;28;45320;-74
2021/12/14 11:58:39;;;;;;;;;43.75;32.75;;;;;10.60;68.73;102309.22;5061088;28;45904;-76
2021/12/14 12:01:07;;;;;;;;;34.00;28.50;;;;;10.60;69.43;102309.22;5060968;28;45429;-75
2021/12/14 12:03:40;;;;;;;;;38.50;34.50;;;;;10.57;69.32;102293.31;5061628;28;45360;-76